sensor_id;sensor_type;location;lat;lon;timestamp;P1;durP1;ratioP1;P2;durP2;ratioP2
21729;SDS011;11027;51.030;13.812;2022-10-16T13:53:14;0.30;;;0.30;;
21729;SDS011;11027;51.030;13.812;2022-10-16T13:55:40;0.65;;;0.40;;
21729;SDS011;11027;51.030;13.812;2022-10-16T13:58:11;1.58;;;0.52;;
21729;SDS011;11027;51.030;13.812;2022-10-16T14:00:38;2.20;;;0.80;;
21729;SDS011;11027;51.030;13.812;2022-10-16T14:03:05;2.58;;;0.60;;
21729;SDS011;11027;51.030;13.812;2022-10-16T14:05:41;1.25;;;0.68;;
21729;SDS011;11027;51.030;13.812;2022-10-16T14:08:27;1.23;;;0.60;;
21729;SDS011;11027;51.030;13.812;2022-10-16T14:10:58;1.85;;;0.82;;
21729;SDS011;11027;51.030;13.812;2022-10-16T14:13:33;1.52;;;0.60;;
21729;SDS011;11027;51.030;13.812;2022-10-16T14:16:05;0.98;;;0.60;;
21729;SDS011;11027;51.030;13.812;2022-10-16T14:18:35;1.58;;;0.90;;
21729;SDS011;11027;51.030;13.812;2022-10-16T14:21:04;4.10;;;1.00;;
21729;SDS011;11027;51.030;13.812;2022-10-16T14:23:34;1.50;;;0.88;;
21729;SDS011;11027;51.030;13.812;2022-10-16T14:26:21;3.22;;;0.93;;
21729;SDS011;11027;51.030;13.812;2022-10-16T14:28:48;1.25;;;0.95;;
21729;SDS011;11027;51.030;13.812;2022-10-16T14:33:52;1.10;;;1.00;;
21729;SDS011;11027;51.030;13.812;2022-10-16T14:36:18;1.20;;;0.70;;
21729;SDS011;11027;51.030;13.812;2022-10-16T14:38:50;1.45;;;0.90;;
21729;SDS011;11027;51.030;13.812;2022-10-16T14:41:23;2.00;;;0.60;;
21729;SDS011;11027;51.030;13.812;2022-10-16T14:43:53;1.58;;;0.80;;
21729;SDS011;11027;51.030;13.812;2022-10-16T14:46:31;2.45;;;0.80;;
21729;SDS011;11027;51.030;13.812;2022-10-16T14:49:02;1.88;;;0.73;;
21729;SDS011;11027;51.030;13.812;2022-10-16T14:51:30;1.25;;;0.75;;
21729;SDS011;11027;51.030;13.812;2022-10-16T14:53:55;3.92;;;1.00;;
21729;SDS011;11027;51.030;13.812;2022-10-16T14:56:22;0.98;;;0.80;;
21729;SDS011;11027;51.030;13.812;2022-10-16T14:58:49;3.35;;;0.80;;
21729;SDS011;11027;51.030;13.812;2022-10-16T15:01:16;0.93;;;0.88;;
21729;SDS011;11027;51.030;13.812;2022-10-16T15:03:41;2.35;;;1.00;;
21729;SDS011;11027;51.030;13.812;2022-10-16T15:06:13;3.08;;;1.27;;
21729;SDS011;11027;51.030;13.812;2022-10-16T15:08:40;2.65;;;1.20;;
21729;SDS011;11027;51.030;13.812;2022-10-16T15:11:08;3.10;;;1.40;;
21729;SDS011;11027;51.030;13.812;2022-10-16T15:16:02;2.13;;;1.23;;
21729;SDS011;11027;51.030;13.812;2022-10-16T15:18:27;3.00;;;0.98;;
21729;SDS011;11027;51.030;13.812;2022-10-16T15:20:53;3.45;;;1.00;;
21729;SDS011;11027;51.030;13.812;2022-10-16T15:23:19;2.10;;;1.27;;
21729;SDS011;11027;51.030;13.812;2022-10-16T15:25:50;3.08;;;1.35;;
21729;SDS011;11027;51.030;13.812;2022-10-16T15:28:20;2.35;;;1.40;;
21729;SDS011;11027;51.030;13.812;2022-10-16T15:30:46;1.65;;;0.98;;
21729;SDS011;11027;51.030;13.812;2022-10-16T15:33:16;1.48;;;0.90;;
21729;SDS011;11027;51.030;13.812;2022-10-16T15:35:45;4.43;;;1.00;;
21729;SDS011;11027;51.030;13.812;2022-10-16T15:38:12;2.35;;;1.20;;
21729;SDS011;11027;51.030;13.812;2022-10-16T15:40:39;3.78;;;1.40;;
21729;SDS011;11027;51.030;13.812;2022-10-16T15:43:05;2.90;;;1.15;;
21729;SDS011;11027;51.030;13.812;2022-10-16T15:45:30;1.75;;;1.35;;
21729;SDS011;11027;51.030;13.812;2022-10-16T15:47:55;1.63;;;1.30;;
21729;SDS011;11027;51.030;13.812;2022-10-16T15:50:21;3.08;;;2.20;;
21729;SDS011;11027;51.030;13.812;2022-10-16T15:52:46;2.45;;;1.45;;
21729;SDS011;11027;51.030;13.812;2022-10-16T15:55:12;1.30;;;1.15;;
21729;SDS011;11027;51.030;13.812;2022-10-16T15:57:38;3.58;;;1.17;;
21729;SDS011;11027;51.030;13.812;2022-10-16T16:14:39;4.03;;;1.75;;
21729;SDS011;11027;51.030;13.812;2022-10-16T16:17:05;3.63;;;2.15;;
21729;SDS011;11027;51.030;13.812;2022-10-16T16:19:30;3.20;;;2.00;;
21729;SDS011;11027;51.030;13.812;2022-10-16T16:21:56;3.28;;;2.00;;
21729;SDS011;11027;51.030;13.812;2022-10-16T16:24:22;4.25;;;1.80;;
21729;SDS011;11027;51.030;13.812;2022-10-16T16:26:47;3.03;;;1.95;;
21729;SDS011;11027;51.030;13.812;2022-10-16T17:18:07;5.43;;;3.30;;
21729;SDS011;11027;51.030;13.812;2022-10-16T17:20:35;7.20;;;3.85;;
21729;SDS011;11027;51.030;13.812;2022-10-16T17:23:00;8.93;;;3.47;;
21729;SDS011;11027;51.030;13.812;2022-10-16T17:25:25;6.82;;;3.55;;
21729;SDS011;11027;51.030;13.812;2022-10-16T17:27:51;4.93;;;3.70;;
21729;SDS011;11027;51.030;13.812;2022-10-16T17:30:16;8.48;;;3.67;;
21729;SDS011;11027;51.030;13.812;2022-10-16T17:32:41;14.10;;;3.80;;
21729;SDS011;11027;51.030;13.812;2022-10-16T17:35:06;5.25;;;3.50;;
21729;SDS011;11027;51.030;13.812;2022-10-16T17:37:32;7.32;;;3.60;;
21729;SDS011;11027;51.030;13.812;2022-10-16T17:39:58;6.97;;;4.15;;
21729;SDS011;11027;51.030;13.812;2022-10-16T17:42:23;6.25;;;4.30;;
21729;SDS011;11027;51.030;13.812;2022-10-16T17:44:48;4.72;;;4.20;;
21729;SDS011;11027;51.030;13.812;2022-10-16T17:47:14;6.53;;;4.25;;
21729;SDS011;11027;51.030;13.812;2022-10-16T17:49:39;6.18;;;4.55;;
21729;SDS011;11027;51.030;13.812;2022-10-16T17:52:04;7.50;;;5.03;;
21729;SDS011;11027;51.030;13.812;2022-10-16T17:54:30;10.32;;;4.53;;
21729;SDS011;11027;51.030;13.812;2022-10-16T17:56:55;7.78;;;4.70;;
21729;SDS011;11027;51.030;13.812;2022-10-16T17:59:21;9.75;;;6.55;;
21729;SDS011;11027;51.030;13.812;2022-10-16T18:01:47;9.35;;;4.93;;
21729;SDS011;11027;51.030;13.812;2022-10-16T18:04:13;10.52;;;6.22;;
21729;SDS011;11027;51.030;13.812;2022-10-16T18:06:40;14.07;;;6.60;;
21729;SDS011;11027;51.030;13.812;2022-10-16T18:09:08;7.30;;;6.50;;
21729;SDS011;11027;51.030;13.812;2022-10-16T18:11:35;9.48;;;6.63;;
21729;SDS011;11027;51.030;13.812;2022-10-16T18:14:00;13.88;;;6.85;;
21729;SDS011;11027;51.030;13.812;2022-10-16T18:16:27;10.65;;;6.47;;
21729;SDS011;11027;51.030;13.812;2022-10-16T18:18:54;9.13;;;6.90;;
21729;SDS011;11027;51.030;13.812;2022-10-16T18:21:21;8.55;;;6.43;;
21729;SDS011;11027;51.030;13.812;2022-10-16T18:23:47;8.10;;;6.30;;
21729;SDS011;11027;51.030;13.812;2022-10-16T18:26:13;7.85;;;6.40;;
21729;SDS011;11027;51.030;13.812;2022-10-16T18:28:40;10.30;;;7.70;;
21729;SDS011;11027;51.030;13.812;2022-10-16T18:31:07;10.23;;;6.45;;
21729;SDS011;11027;51.030;13.812;2022-10-16T18:33:35;7.60;;;5.90;;
21729;SDS011;11027;51.030;13.812;2022-10-16T18:36:08;13.23;;;6.07;;
21729;SDS011;11027;51.030;13.812;2022-10-16T20:59:57;5.90;;;3.30;;
21729;SDS011;11027;51.030;13.812;2022-10-16T21:02:23;6.10;;;3.47;;
21729;SDS011;11027;51.030;13.812;2022-10-16T21:04:48;10.73;;;4.25;;
21729;SDS011;11027;51.030;13.812;2022-10-16T21:07:14;6.65;;;3.75;;
21729;SDS011;11027;51.030;13.812;2022-10-16T21:09:40;6.85;;;3.60;;
21729;SDS011;11027;51.030;13.812;2022-10-16T21:12:05;11.95;;;3.33;;
21729;SDS011;11027;51.030;13.812;2022-10-16T21:14:31;5.05;;;3.72;;
21729;SDS011;11027;51.030;13.812;2022-10-16T21:16:56;6.50;;;3.90;;
21729;SDS011;11027;51.030;13.812;2022-10-16T21:19:21;3.97;;;3.38;;
21729;SDS011;11027;51.030;13.812;2022-10-16T21:21:47;3.70;;;3.08;;
21729;SDS011;11027;51.030;13.812;2022-10-16T21:24:12;4.88;;;3.25;;
21729;SDS011;11027;51.030;13.812;2022-10-16T21:26:38;3.42;;;2.90;;
21729;SDS011;11027;51.030;13.812;2022-10-16T21:29:04;6.70;;;3.20;;
21729;SDS011;11027;51.030;13.812;2022-10-16T21:31:30;6.80;;;3.20;;
21729;SDS011;11027;51.030;13.812;2022-10-16T21:33:56;4.80;;;3.38;;
21729;SDS011;11027;51.030;13.812;2022-10-16T21:36:23;6.82;;;3.20;;
21729;SDS011;11027;51.030;13.812;2022-10-16T21:38:50;6.20;;;3.20;;
21729;SDS011;11027;51.030;13.812;2022-10-16T21:41:17;4.88;;;3.20;;
21729;SDS011;11027;51.030;13.812;2022-10-16T21:43:45;3.35;;;3.05;;
21729;SDS011;11027;51.030;13.812;2022-10-16T21:46:11;4.63;;;3.15;;
21729;SDS011;11027;51.030;13.812;2022-10-16T21:48:37;4.57;;;3.20;;
21729;SDS011;11027;51.030;13.812;2022-10-16T21:51:03;4.20;;;3.20;;
21729;SDS011;11027;51.030;13.812;2022-10-16T21:53:29;4.88;;;3.60;;
21729;SDS011;11027;51.030;13.812;2022-10-16T21:55:54;6.75;;;3.50;;
21729;SDS011;11027;51.030;13.812;2022-10-16T21:58:20;5.43;;;3.40;;
21729;SDS011;11027;51.030;13.812;2022-10-16T22:00:45;6.45;;;3.53;;
21729;SDS011;11027;51.030;13.812;2022-10-16T22:03:10;5.28;;;3.00;;
21729;SDS011;11027;51.030;13.812;2022-10-16T22:05:36;6.78;;;3.53;;
21729;SDS011;11027;51.030;13.812;2022-10-16T22:08:01;4.38;;;3.70;;
21729;SDS011;11027;51.030;13.812;2022-10-16T22:10:26;19.00;;;15.82;;
